KSEP/SEP METAR and TAF weather

Enter ICAO airport designator
Station Type Date Time Source
KSEP METAR 2021/02/24 17:35 UTC NOAA

KSEP 241735Z AUTO 32017G20KT 10SM CLR 17/01 A3009 RMK AO2 T01730005


Station Type Date Time Source
KSEP Decoded METAR 2021/02/24 17:35 UTC NOAA

Stephenville, Clark Field Municipal Airport, TX, United States (KSEP) 32-13N 098-11W 402M
Feb 24, 2021 - 12:35 PM EST / 2021.02.24 1735 UTC
Wind: from the NW (320 degrees) at 20 MPH (17 KT) gusting to 23 MPH (20 KT):0
Visibility: 10 mile(s):0
Sky conditions: clear
Temperature: 63.1 F (17.3 C)
Dew Point: 32.9 F (0.5 C)
Relative Humidity: 32%
Pressure (altimeter): 30.09 in. Hg (1018 hPa)
ob: KSEP 241735Z AUTO 32017G20KT 10SM CLR 17/01 A3009 RMK AO2 T01730005
cycle: 17

Station Type Date Time Source
KSEP TAF UTC NOAA

Error!

Example: see airport list